createdAt,value
2024-02-03T00:01:55.570Z,0.41
2024-02-03T00:08:17.209Z,0.41
2024-02-03T00:10:44.825Z,0.37
2024-02-03T00:13:12.465Z,0.36
2024-02-03T00:15:40.082Z,0.35
2024-02-03T00:18:07.855Z,0.34
2024-02-03T00:20:35.441Z,0.33
2024-02-03T00:23:03.078Z,0.34
2024-02-03T00:25:30.669Z,0.33
2024-02-03T00:27:58.237Z,0.33
2024-02-03T00:30:25.857Z,0.31
2024-02-03T00:32:53.524Z,0.30
2024-02-03T00:35:21.258Z,0.30
2024-02-03T00:37:49.026Z,0.29
2024-02-03T00:40:16.656Z,0.29
2024-02-03T00:42:44.874Z,0.30
2024-02-03T00:45:12.682Z,0.31
2024-02-03T00:47:40.439Z,0.31
2024-02-03T00:50:15.944Z,0.31
2024-02-03T00:56:02.174Z,0.34
2024-02-03T00:58:30.784Z,0.31
2024-02-03T01:00:58.399Z,0.30
2024-02-03T01:03:28.904Z,0.29
2024-02-03T01:05:56.590Z,0.28
2024-02-03T01:08:24.809Z,0.28
2024-02-03T01:10:52.380Z,0.28
2024-02-03T01:13:20.000Z,0.27
2024-02-03T01:15:47.943Z,0.28
2024-02-03T01:18:15.840Z,0.28
2024-02-03T01:20:43.444Z,0.28
2024-02-03T01:23:10.965Z,0.29
2024-02-03T01:25:38.554Z,0.31
2024-02-03T01:28:06.217Z,0.32
2024-02-03T01:30:33.975Z,0.33
2024-02-03T01:33:01.670Z,0.34
2024-02-03T01:35:31.439Z,0.35
2024-02-03T01:37:59.320Z,0.34
2024-02-03T01:40:29.172Z,0.34
2024-02-03T01:43:03.270Z,0.34
2024-02-03T01:45:30.918Z,0.35
2024-02-03T01:47:58.614Z,0.36
2024-02-03T01:50:26.625Z,0.38
2024-02-03T01:52:54.295Z,0.40
2024-02-03T01:55:21.895Z,0.43
2024-02-03T01:57:49.543Z,0.46
2024-02-03T02:00:17.553Z,0.48
2024-02-03T02:02:45.741Z,0.51
2024-02-03T02:05:13.477Z,0.54
2024-02-03T02:07:47.256Z,0.55
2024-02-03T02:10:15.035Z,0.57
2024-02-03T02:12:42.674Z,0.58
2024-02-03T02:15:10.662Z,0.60
2024-02-03T02:17:38.297Z,0.62
2024-02-03T02:20:12.105Z,0.63
2024-02-03T02:22:39.735Z,0.66
2024-02-03T02:25:07.553Z,0.69
2024-02-03T02:27:35.353Z,0.71
2024-02-03T02:30:03.042Z,0.74
2024-02-03T02:32:30.679Z,0.77
2024-02-03T02:34:58.358Z,0.79
2024-02-03T02:37:26.284Z,0.81
2024-02-03T02:39:54.313Z,0.81
2024-02-03T02:42:21.995Z,0.83
2024-02-03T02:44:49.892Z,0.83
2024-02-03T02:47:17.902Z,0.84
2024-02-03T02:49:45.612Z,0.84
2024-02-03T02:52:13.309Z,0.84
2024-02-03T02:54:41.107Z,0.85
2024-02-03T02:57:08.771Z,0.84
2024-02-03T02:59:36.412Z,0.84
2024-02-03T03:02:04.779Z,0.83
2024-02-03T03:04:33.118Z,0.83
2024-02-03T03:07:00.799Z,0.81
2024-02-03T03:09:28.463Z,0.81
2024-02-03T03:11:56.032Z,0.80
2024-02-03T03:14:23.653Z,0.80
2024-02-03T03:16:51.326Z,0.82
2024-02-03T03:19:19.077Z,0.82
2024-02-03T03:21:46.908Z,0.84
2024-02-03T03:24:14.718Z,0.85
2024-02-03T03:26:43.931Z,0.86
2024-02-03T03:29:16.320Z,0.88
2024-02-03T03:31:44.535Z,0.89
2024-02-03T03:34:12.288Z,0.90
2024-02-03T03:36:40.135Z,0.91
2024-02-03T03:39:10.306Z,0.92
2024-02-03T03:41:38.009Z,0.92
2024-02-03T03:44:06.046Z,0.94
2024-02-03T03:46:33.650Z,0.94
2024-02-03T03:49:01.252Z,0.95
2024-02-03T03:51:29.062Z,0.95
2024-02-03T03:53:56.654Z,0.95
2024-02-03T03:56:24.193Z,0.95
2024-02-03T03:58:52.040Z,0.93
2024-02-03T04:01:19.788Z,0.90
2024-02-03T04:03:47.991Z,0.88
2024-02-03T04:06:15.819Z,0.85
2024-02-03T04:08:43.352Z,0.81
2024-02-03T04:11:11.023Z,0.76
2024-02-03T04:13:40.521Z,0.70
2024-02-03T04:16:08.289Z,0.64
2024-02-03T04:18:35.970Z,0.58
2024-02-03T04:21:04.070Z,0.52
2024-02-03T04:23:31.587Z,0.47
2024-02-03T04:25:59.383Z,0.43
2024-02-03T04:28:26.906Z,0.40
2024-02-03T04:30:56.547Z,0.38
2024-02-03T04:33:24.664Z,0.37
2024-02-03T04:35:52.580Z,0.35
2024-02-03T04:38:20.165Z,0.33
2024-02-03T04:40:47.699Z,0.33
2024-02-03T04:43:15.749Z,0.31
2024-02-03T04:45:43.355Z,0.30
2024-02-03T04:48:11.196Z,0.29
2024-02-03T04:50:38.785Z,0.28
2024-02-03T04:53:06.377Z,0.30
2024-02-03T04:55:33.945Z,0.30
2024-02-03T04:58:01.733Z,0.29
2024-02-03T05:00:29.376Z,0.29
2024-02-03T05:02:57.012Z,0.30
2024-02-03T05:05:24.590Z,0.30
2024-02-03T05:07:52.410Z,0.29
2024-02-03T05:10:19.983Z,0.28
2024-02-03T05:12:47.611Z,0.26
2024-02-03T05:15:15.359Z,0.26
2024-02-03T05:17:43.016Z,0.26
2024-02-03T05:20:11.265Z,0.25
2024-02-03T05:22:38.746Z,0.23
2024-02-03T05:25:06.608Z,0.21
2024-02-03T05:27:34.193Z,0.20
2024-02-03T05:30:02.098Z,0.18
2024-02-03T05:32:30.988Z,0.18
2024-02-03T05:34:58.564Z,0.18
2024-02-03T05:37:26.129Z,0.19
2024-02-03T05:39:53.812Z,0.19
2024-02-03T05:42:23.756Z,0.18
2024-02-03T05:44:51.720Z,0.18
2024-02-03T05:47:19.277Z,0.16
2024-02-03T05:49:46.968Z,0.17
2024-02-03T05:52:14.519Z,0.17
2024-02-03T05:54:42.030Z,0.17
2024-02-03T05:57:13.580Z,0.18
2024-02-03T05:59:51.286Z,0.19
2024-02-03T06:02:19.487Z,0.21
2024-02-03T06:04:48.262Z,0.23
2024-02-03T06:07:17.414Z,0.25
2024-02-03T06:09:45.231Z,0.26
2024-02-03T06:12:12.920Z,0.27
2024-02-03T06:14:42.266Z,0.30
2024-02-03T06:17:13.213Z,0.33
2024-02-03T06:19:43.883Z,0.35
2024-02-03T06:22:12.297Z,0.37
2024-02-03T06:24:39.857Z,0.38
2024-02-03T06:27:07.423Z,0.39
2024-02-03T06:29:35.285Z,0.39
2024-02-03T06:32:03.393Z,0.40
2024-02-03T06:34:31.319Z,0.39
2024-02-03T06:36:58.989Z,0.38
2024-02-03T06:39:26.539Z,0.37
2024-02-03T06:41:54.474Z,0.36
2024-02-03T06:44:22.025Z,0.37
2024-02-03T06:46:49.511Z,0.37
2024-02-03T06:49:17.176Z,0.38
2024-02-03T06:51:44.935Z,0.37
2024-02-03T06:54:12.635Z,0.38
2024-02-03T06:56:40.166Z,0.38
2024-02-03T06:59:07.871Z,0.40
2024-02-03T07:01:35.531Z,0.41
2024-02-03T07:04:03.375Z,0.43
2024-02-03T07:06:31.155Z,0.44
2024-02-03T07:08:58.701Z,0.44
2024-02-03T07:11:26.182Z,0.44
2024-02-03T07:13:53.864Z,0.44
2024-02-03T07:16:21.543Z,0.46
2024-02-03T07:18:49.113Z,0.47
2024-02-03T07:21:16.796Z,0.49
2024-02-03T07:23:44.499Z,0.51
2024-02-03T07:26:12.119Z,0.54
2024-02-03T07:28:39.732Z,0.55
2024-02-03T07:31:07.399Z,0.56
2024-02-03T07:33:35.232Z,0.57
2024-02-03T07:36:03.017Z,0.60
2024-02-03T07:38:30.575Z,0.60
2024-02-03T07:40:58.247Z,0.61
2024-02-03T07:43:25.693Z,0.62
2024-02-03T07:45:53.318Z,0.64
2024-02-03T07:48:21.212Z,0.65
2024-02-03T07:50:48.902Z,0.65
2024-02-03T07:53:16.470Z,0.65
2024-02-03T07:55:44.110Z,0.64
2024-02-03T07:58:11.647Z,0.63
2024-02-03T08:00:39.327Z,0.64
2024-02-03T08:03:06.842Z,0.67
2024-02-03T08:05:34.485Z,0.67
2024-02-03T08:08:02.893Z,0.68
2024-02-03T08:10:30.493Z,0.70
2024-02-03T08:12:58.114Z,0.72
2024-02-03T08:15:26.840Z,0.73
2024-02-03T08:17:54.484Z,0.75
2024-02-03T08:20:22.065Z,0.77
2024-02-03T08:22:49.587Z,0.78
2024-02-03T08:25:17.396Z,0.78
2024-02-03T08:27:45.073Z,0.79
2024-02-03T08:30:13.511Z,0.80
2024-02-03T08:32:41.039Z,0.81
2024-02-03T08:37:39.350Z,0.82
2024-02-03T08:40:07.631Z,0.84
2024-02-03T08:42:35.239Z,0.86
2024-02-03T08:45:03.212Z,0.87
2024-02-03T08:47:30.760Z,0.90
2024-02-03T08:49:58.375Z,0.93
2024-02-03T08:52:25.903Z,0.95
2024-02-03T08:54:53.643Z,0.97
2024-02-03T08:57:21.253Z,1.00
2024-02-03T08:59:51.711Z,1.02
2024-02-03T09:02:19.265Z,1.05
2024-02-03T09:04:47.054Z,1.09
2024-02-03T09:07:14.697Z,1.12
2024-02-03T09:09:43.723Z,1.15
2024-02-03T09:12:11.593Z,1.18
2024-02-03T09:14:39.402Z,1.23
2024-02-03T09:17:07.328Z,1.27
2024-02-03T09:19:35.286Z,1.33
2024-02-03T09:22:03.134Z,1.39
2024-02-03T09:24:31.002Z,1.45
2024-02-03T09:26:58.764Z,1.50
2024-02-03T09:29:26.413Z,1.54
2024-02-03T09:31:55.986Z,1.57
2024-02-03T09:34:24.713Z,1.60
2024-02-03T09:39:23.338Z,1.63
2024-02-03T09:41:50.935Z,1.65
2024-02-03T09:44:18.469Z,1.68
2024-02-03T09:46:46.099Z,1.71
2024-02-03T09:49:13.967Z,1.73
2024-02-03T09:51:41.661Z,1.75
2024-02-03T09:54:09.204Z,1.78
2024-02-03T09:56:36.774Z,1.80
2024-02-03T09:59:04.346Z,1.82
2024-02-03T10:01:32.076Z,1.83
2024-02-03T10:03:59.884Z,1.86
2024-02-03T10:06:27.776Z,1.88
2024-02-03T10:08:55.736Z,1.91
2024-02-03T10:11:23.622Z,1.92
2024-02-03T10:14:02.105Z,1.94
2024-02-03T10:16:29.699Z,1.98
2024-02-03T10:18:57.367Z,2.01
2024-02-03T10:21:25.234Z,2.04
2024-02-03T10:23:53.158Z,2.07
2024-02-03T10:26:20.885Z,2.11
2024-02-03T10:28:49.174Z,2.14
2024-02-03T10:31:16.756Z,2.15
2024-02-03T10:33:47.507Z,2.17
2024-02-03T10:36:15.332Z,2.20
2024-02-03T10:38:42.888Z,2.21
2024-02-03T10:41:11.443Z,2.24
2024-02-03T10:43:39.119Z,2.26
2024-02-03T10:46:09.670Z,2.29
2024-02-03T10:48:38.109Z,2.31
2024-02-03T10:51:17.537Z,2.34
2024-02-03T10:54:06.345Z,2.37
2024-02-03T10:56:34.970Z,2.40
2024-02-03T10:59:07.063Z,2.43
2024-02-03T11:01:35.919Z,2.46
2024-02-03T11:04:03.884Z,2.48
2024-02-03T11:06:32.758Z,2.50
2024-02-03T11:09:24.197Z,2.52
2024-02-03T11:11:54.940Z,2.54
2024-02-03T11:14:25.780Z,2.58
2024-02-03T11:17:02.876Z,2.61
2024-02-03T11:19:32.296Z,2.64
2024-02-03T11:22:04.566Z,2.66
2024-02-03T11:24:32.523Z,2.70
2024-02-03T11:27:04.534Z,2.73
2024-02-03T11:29:32.645Z,2.76
2024-02-03T11:32:02.060Z,2.80
2024-02-03T11:34:29.825Z,2.82
2024-02-03T11:36:58.069Z,2.85
2024-02-03T11:39:38.464Z,2.87
2024-02-03T11:42:07.730Z,2.89
2024-02-03T11:44:44.477Z,2.92
2024-02-03T11:47:12.242Z,2.95
2024-02-03T11:49:39.820Z,2.96
2024-02-03T11:52:07.615Z,2.99
2024-02-03T11:54:35.249Z,3.04
2024-02-03T11:57:03.066Z,3.07
2024-02-03T11:59:31.059Z,3.10
2024-02-03T12:01:59.528Z,3.12
2024-02-03T12:04:27.890Z,3.13
2024-02-03T12:06:56.326Z,3.15
2024-02-03T12:09:24.322Z,3.19
2024-02-03T12:11:53.715Z,3.21
2024-02-03T12:14:22.118Z,3.24
2024-02-03T12:16:50.403Z,3.27
2024-02-03T12:19:18.449Z,3.27
2024-02-03T12:21:48.818Z,3.27
2024-02-03T12:24:16.474Z,3.27
2024-02-03T12:26:44.120Z,3.26
2024-02-03T12:29:13.252Z,3.26
2024-02-03T12:31:41.401Z,3.28
2024-02-03T12:34:09.198Z,3.29
2024-02-03T12:36:37.022Z,3.30
2024-02-03T12:39:04.896Z,3.32
2024-02-03T12:41:32.661Z,3.34
2024-02-03T12:44:00.230Z,3.36
2024-02-03T12:46:28.118Z,3.36
2024-02-03T12:48:55.810Z,3.38
2024-02-03T12:51:23.481Z,3.40
2024-02-03T12:53:51.573Z,3.42
2024-02-03T12:56:19.504Z,3.44
2024-02-03T12:58:49.226Z,3.46
2024-02-03T13:01:17.797Z,3.48
2024-02-03T13:03:45.563Z,3.49
2024-02-03T13:06:13.902Z,3.51
2024-02-03T13:08:41.591Z,3.55
2024-02-03T13:11:09.206Z,3.56
2024-02-03T13:13:37.194Z,3.57
2024-02-03T13:16:05.466Z,3.59
2024-02-03T13:18:33.841Z,3.61
2024-02-03T13:21:02.294Z,3.63
2024-02-03T13:23:29.955Z,3.67
2024-02-03T13:25:57.599Z,3.71
2024-02-03T13:28:25.334Z,3.73
2024-02-03T13:30:53.743Z,3.77
2024-02-03T13:33:21.473Z,3.79
2024-02-03T13:35:49.144Z,3.82
2024-02-03T13:38:16.907Z,3.86
2024-02-03T13:40:44.553Z,3.90
2024-02-03T13:43:12.233Z,3.93
2024-02-03T13:45:40.315Z,3.97
2024-02-03T13:48:08.195Z,4.00
2024-02-03T13:50:35.831Z,4.03
2024-02-03T13:53:03.725Z,4.07
2024-02-03T13:55:31.510Z,4.11
2024-02-03T13:57:59.361Z,4.15
2024-02-03T14:00:27.600Z,4.19
2024-02-03T14:02:55.371Z,4.24
2024-02-03T14:05:23.560Z,4.29
2024-02-03T14:07:51.553Z,4.33
2024-02-03T14:10:19.934Z,4.38
2024-02-03T14:12:47.791Z,4.41
2024-02-03T14:15:15.662Z,4.45
2024-02-03T14:17:43.547Z,4.48
2024-02-03T14:20:11.293Z,4.50
2024-02-03T14:22:38.931Z,4.52
2024-02-03T14:25:07.290Z,4.55
2024-02-03T14:27:36.337Z,4.59
2024-02-03T14:30:07.097Z,4.61
2024-02-03T14:32:34.743Z,4.63
2024-02-03T14:35:02.807Z,4.66
2024-02-03T14:37:30.484Z,4.69
2024-02-03T14:39:58.418Z,4.71
2024-02-03T14:42:25.943Z,4.73
2024-02-03T14:44:53.744Z,4.76
2024-02-03T14:47:21.711Z,4.78
2024-02-03T14:49:49.425Z,4.80
2024-02-03T14:52:19.949Z,4.84
2024-02-03T14:54:47.544Z,4.86
2024-02-03T14:57:15.647Z,4.88
2024-02-03T14:59:43.235Z,4.89
2024-02-03T15:02:10.874Z,4.90
2024-02-03T15:04:38.767Z,4.91
2024-02-03T15:07:06.508Z,4.90
2024-02-03T15:09:34.275Z,4.89
2024-02-03T15:12:02.461Z,4.90
2024-02-03T15:14:30.095Z,4.92
2024-02-03T15:16:57.869Z,4.95
2024-02-03T15:19:25.547Z,4.96
2024-02-03T15:21:53.630Z,4.98
2024-02-03T15:24:21.377Z,5.00
2024-02-03T15:26:49.165Z,5.02
2024-02-03T15:29:16.787Z,5.04
2024-02-03T15:31:44.383Z,5.04
2024-02-03T15:34:12.065Z,5.05
2024-02-03T15:36:39.882Z,5.06
2024-02-03T15:39:07.580Z,5.07
2024-02-03T15:41:35.483Z,5.08
2024-02-03T15:44:04.675Z,5.09
2024-02-03T15:46:39.897Z,5.11
2024-02-03T15:49:12.815Z,5.13
2024-02-03T15:51:40.778Z,5.15
2024-02-03T15:54:08.852Z,5.19
2024-02-03T15:56:37.079Z,5.23
2024-02-03T15:59:04.751Z,5.27
2024-02-03T16:01:32.505Z,5.29
2024-02-03T16:04:00.243Z,5.33
2024-02-03T16:06:28.173Z,5.37
2024-02-03T16:08:55.945Z,5.40
2024-02-03T16:11:23.653Z,5.41
2024-02-03T16:13:51.185Z,5.43
2024-02-03T16:16:20.282Z,5.44
2024-02-03T16:18:48.338Z,5.45
2024-02-03T16:21:16.430Z,5.47
2024-02-03T16:23:44.212Z,5.48
2024-02-03T16:26:12.169Z,5.49
2024-02-03T16:28:41.132Z,5.49
2024-02-03T16:31:08.753Z,5.50
2024-02-03T16:33:36.631Z,5.52
2024-02-03T16:36:04.560Z,5.54
2024-02-03T16:38:32.224Z,5.55
2024-02-03T16:40:59.765Z,5.57
2024-02-03T16:43:27.330Z,5.58
2024-02-03T16:45:55.087Z,5.59
2024-02-03T16:48:23.540Z,5.59
2024-02-03T16:50:51.805Z,5.61
2024-02-03T16:53:19.490Z,5.61
2024-02-03T16:55:47.138Z,5.62
2024-02-03T16:58:15.014Z,5.61
2024-02-03T17:00:42.682Z,5.57
2024-02-03T17:03:11.928Z,5.53
2024-02-03T17:05:42.042Z,5.51
2024-02-03T17:08:19.915Z,5.51
2024-02-03T17:10:48.117Z,5.51
2024-02-03T17:13:15.705Z,5.53
2024-02-03T17:15:43.535Z,5.57
2024-02-03T17:18:11.348Z,5.61
2024-02-03T17:20:39.146Z,5.63
2024-02-03T17:23:06.987Z,5.67
2024-02-03T17:25:37.742Z,5.70
2024-02-03T17:28:05.645Z,5.73
2024-02-03T17:30:36.015Z,5.76
2024-02-03T17:33:04.518Z,5.78
2024-02-03T17:35:33.608Z,5.81
2024-02-03T17:38:01.325Z,5.83
2024-02-03T17:40:31.401Z,5.86
2024-02-03T17:42:59.139Z,5.87
2024-02-03T17:45:27.024Z,5.88
2024-02-03T17:47:55.031Z,5.90
2024-02-03T17:50:22.916Z,5.92
2024-02-03T17:52:50.692Z,5.92
2024-02-03T17:55:18.453Z,5.93
2024-02-03T17:57:47.252Z,5.96
2024-02-03T18:00:15.709Z,5.99
2024-02-03T18:02:44.639Z,6.00
2024-02-03T18:05:12.717Z,6.00
2024-02-03T18:07:40.577Z,6.01
2024-02-03T18:10:08.829Z,6.01
2024-02-03T18:12:37.025Z,6.01
2024-02-03T18:15:05.476Z,6.01
2024-02-03T18:17:33.230Z,6.01
2024-02-03T18:20:01.010Z,6.01
2024-02-03T18:22:32.643Z,6.00
2024-02-03T18:25:00.586Z,5.98
2024-02-03T18:27:28.408Z,5.97
2024-02-03T18:29:56.003Z,5.95
2024-02-03T18:32:23.533Z,5.93
2024-02-03T18:34:51.510Z,5.93
2024-02-03T18:37:19.486Z,5.91
2024-02-03T18:39:53.565Z,5.91
2024-02-03T18:42:22.147Z,5.90
2024-02-03T18:44:49.784Z,5.90
2024-02-03T18:47:17.445Z,5.90
2024-02-03T18:49:45.184Z,5.91
2024-02-03T18:52:12.820Z,5.91
2024-02-03T18:54:43.359Z,5.91
2024-02-03T18:57:10.982Z,5.90
2024-02-03T18:59:38.574Z,5.91
2024-02-03T19:02:06.219Z,5.90
2024-02-03T19:04:34.231Z,5.91
2024-02-03T19:07:02.157Z,5.90
2024-02-03T19:09:32.362Z,5.89
2024-02-03T19:11:59.992Z,5.89
2024-02-03T19:14:27.764Z,5.89
2024-02-03T19:16:58.315Z,5.89
2024-02-03T19:19:26.106Z,5.89
2024-02-03T19:21:53.786Z,5.89
2024-02-03T19:24:21.459Z,5.88
2024-02-03T19:26:49.023Z,5.87
2024-02-03T19:29:16.640Z,5.87
2024-02-03T19:31:44.319Z,5.87
2024-02-03T19:34:12.033Z,5.86
2024-02-03T19:36:39.815Z,5.85
2024-02-03T19:39:08.974Z,5.83
2024-02-03T19:41:38.375Z,5.83
2024-02-03T19:44:06.138Z,5.81
2024-02-03T19:46:35.375Z,5.82
2024-02-03T19:49:03.763Z,5.82
2024-02-03T19:51:31.720Z,5.82
2024-02-03T19:53:59.419Z,5.83
2024-02-03T19:56:27.027Z,5.83
2024-02-03T19:58:54.672Z,5.82
2024-02-03T20:01:22.456Z,5.82
2024-02-03T20:03:50.511Z,5.83
2024-02-03T20:06:18.502Z,5.85
2024-02-03T20:08:46.152Z,5.86
2024-02-03T20:11:15.574Z,5.87
2024-02-03T20:13:44.318Z,5.86
2024-02-03T20:16:12.091Z,5.86
2024-02-03T20:18:39.906Z,5.85
2024-02-03T20:21:08.080Z,5.86
2024-02-03T20:23:36.192Z,5.86
2024-02-03T20:26:03.990Z,5.86
2024-02-03T20:28:31.752Z,5.86
2024-02-03T20:30:59.487Z,5.86
2024-02-03T20:33:27.498Z,5.85
2024-02-03T20:35:56.153Z,5.84
2024-02-03T20:38:24.671Z,5.82
2024-02-03T20:40:52.662Z,5.82
2024-02-03T20:43:22.195Z,5.82
2024-02-03T20:45:51.992Z,5.82
2024-02-03T20:48:20.451Z,5.82
2024-02-03T20:50:48.910Z,5.83
2024-02-03T20:53:17.216Z,5.83
2024-02-03T20:55:48.285Z,5.80
2024-02-03T20:58:19.759Z,5.78
2024-02-03T21:00:48.021Z,5.76
2024-02-03T21:03:16.650Z,5.74
2024-02-03T21:05:45.170Z,5.72
2024-02-03T21:08:13.223Z,5.71
2024-02-03T21:10:41.285Z,5.69
2024-02-03T21:13:13.825Z,5.66
2024-02-03T21:15:43.653Z,5.64
2024-02-03T21:18:11.667Z,5.61
2024-02-03T21:20:41.239Z,5.59
2024-02-03T21:23:09.381Z,5.58
2024-02-03T21:25:37.462Z,5.56
2024-02-03T21:28:05.624Z,5.53
2024-02-03T21:30:33.599Z,5.51
2024-02-03T21:33:01.605Z,5.50
2024-02-03T21:35:29.761Z,5.49
2024-02-03T21:37:58.691Z,5.49
2024-02-03T21:40:26.345Z,5.48
2024-02-03T21:42:54.346Z,5.48
2024-02-03T21:45:22.853Z,5.48
2024-02-03T21:47:50.711Z,5.49
2024-02-03T21:50:18.669Z,5.52
2024-02-03T21:52:49.203Z,5.54
2024-02-03T21:55:17.255Z,5.55
2024-02-03T21:57:45.231Z,5.56
2024-02-03T22:00:13.790Z,5.56
2024-02-03T22:02:41.613Z,5.57
2024-02-03T22:05:09.594Z,5.58
2024-02-03T22:07:37.548Z,5.60
2024-02-03T22:10:06.216Z,5.64
2024-02-03T22:12:34.610Z,5.69
2024-02-03T22:15:05.888Z,5.72
2024-02-03T22:17:33.807Z,5.74
2024-02-03T22:20:02.087Z,5.76
2024-02-03T22:22:30.185Z,5.78
2024-02-03T22:24:58.003Z,5.80
2024-02-03T22:27:26.635Z,5.82
2024-02-03T22:29:54.719Z,5.82
2024-02-03T22:32:22.664Z,5.82
2024-02-03T22:34:50.486Z,5.82
2024-02-03T22:37:18.475Z,5.81
2024-02-03T22:39:47.909Z,5.80
2024-02-03T22:42:15.740Z,5.80
2024-02-03T22:44:43.511Z,5.79
2024-02-03T22:47:11.690Z,5.78
2024-02-03T22:49:40.322Z,5.80
2024-02-03T22:52:08.325Z,5.81
2024-02-03T22:54:36.418Z,5.81
2024-02-03T22:57:04.569Z,5.79
2024-02-03T22:59:32.820Z,5.79
2024-02-03T23:02:01.254Z,5.77
2024-02-03T23:04:29.300Z,5.77
2024-02-03T23:06:57.200Z,5.77
2024-02-03T23:09:24.941Z,5.76
2024-02-03T23:11:53.063Z,5.75
2024-02-03T23:14:20.948Z,5.74
2024-02-03T23:16:53.712Z,5.74
2024-02-03T23:19:24.606Z,5.74
2024-02-03T23:21:52.795Z,5.75
2024-02-03T23:24:21.248Z,5.76
2024-02-03T23:26:49.136Z,5.76
2024-02-03T23:29:17.012Z,5.77
2024-02-03T23:31:44.945Z,5.77
2024-02-03T23:34:13.202Z,5.79
2024-02-03T23:36:41.145Z,5.81
2024-02-03T23:39:10.963Z,5.82
2024-02-03T23:41:40.067Z,5.81
2024-02-03T23:44:08.399Z,5.81
2024-02-03T23:46:36.767Z,5.81
2024-02-03T23:49:04.715Z,5.81
2024-02-03T23:51:33.247Z,5.79
2024-02-03T23:54:03.348Z,5.79
2024-02-03T23:56:31.241Z,5.78
2024-02-03T23:58:58.946Z,5.78
